sensor_id;sensor_type;location;lat;lon;timestamp;P1;durP1;ratioP1;P2;durP2;ratioP2
44446;SDS011;30152;52.066;5.358;2022-08-19T07:30:58;86.47;;;43.67;;
44446;SDS011;30152;52.066;5.358;2022-08-19T07:33:26;79.88;;;43.13;;
44446;SDS011;30152;52.066;5.358;2022-08-19T07:35:52;84.13;;;43.33;;
44446;SDS011;30152;52.066;5.358;2022-08-19T07:38:19;77.30;;;41.17;;
44446;SDS011;30152;52.066;5.358;2022-08-19T07:40:45;75.13;;;41.17;;
44446;SDS011;30152;52.066;5.358;2022-08-19T07:43:11;71.00;;;40.58;;
44446;SDS011;30152;52.066;5.358;2022-08-19T07:45:37;73.78;;;41.05;;
44446;SDS011;30152;52.066;5.358;2022-08-19T07:48:03;78.03;;;43.15;;
44446;SDS011;30152;52.066;5.358;2022-08-19T07:50:29;72.32;;;39.58;;
44446;SDS011;30152;52.066;5.358;2022-08-19T07:52:55;74.10;;;40.33;;
44446;SDS011;30152;52.066;5.358;2022-08-19T07:55:22;67.45;;;38.85;;
44446;SDS011;30152;52.066;5.358;2022-08-19T07:57:49;72.28;;;41.22;;
44446;SDS011;30152;52.066;5.358;2022-08-19T08:00:16;74.30;;;41.72;;
44446;SDS011;30152;52.066;5.358;2022-08-19T08:02:43;69.32;;;39.92;;
44446;SDS011;30152;52.066;5.358;2022-08-19T08:05:09;66.32;;;36.85;;
44446;SDS011;30152;52.066;5.358;2022-08-19T08:07:54;62.22;;;35.50;;
44446;SDS011;30152;52.066;5.358;2022-08-19T08:10:38;57.72;;;35.53;;
44446;SDS011;30152;52.066;5.358;2022-08-19T08:13:04;58.22;;;33.78;;
44446;SDS011;30152;52.066;5.358;2022-08-19T08:15:30;55.75;;;33.03;;
44446;SDS011;30152;52.066;5.358;2022-08-19T08:17:56;56.53;;;32.72;;
44446;SDS011;30152;52.066;5.358;2022-08-19T08:20:23;51.90;;;32.15;;
44446;SDS011;30152;52.066;5.358;2022-08-19T08:22:49;52.92;;;30.65;;
44446;SDS011;30152;52.066;5.358;2022-08-19T08:25:34;55.35;;;30.75;;
44446;SDS011;30152;52.066;5.358;2022-08-19T08:28:01;50.25;;;29.45;;
44446;SDS011;30152;52.066;5.358;2022-08-19T08:30:27;46.78;;;28.13;;
44446;SDS011;30152;52.066;5.358;2022-08-19T08:32:54;48.03;;;27.85;;
44446;SDS011;30152;52.066;5.358;2022-08-19T08:35:20;53.45;;;30.75;;
44446;SDS011;30152;52.066;5.358;2022-08-19T08:37:47;50.03;;;28.48;;
44446;SDS011;30152;52.066;5.358;2022-08-19T08:40:28;50.17;;;27.63;;
44446;SDS011;30152;52.066;5.358;2022-08-19T08:42:57;42.78;;;26.60;;
44446;SDS011;30152;52.066;5.358;2022-08-19T08:45:25;46.75;;;26.35;;
44446;SDS011;30152;52.066;5.358;2022-08-19T08:47:52;42.38;;;24.33;;
44446;SDS011;30152;52.066;5.358;2022-08-19T08:50:21;42.95;;;22.92;;
44446;SDS011;30152;52.066;5.358;2022-08-19T08:52:50;41.33;;;24.40;;
44446;SDS011;30152;52.066;5.358;2022-08-19T08:55:19;47.58;;;26.05;;
44446;SDS011;30152;52.066;5.358;2022-08-19T09:00:13;48.97;;;24.33;;
44446;SDS011;30152;52.066;5.358;2022-08-19T09:02:41;46.50;;;25.08;;
44446;SDS011;30152;52.066;5.358;2022-08-19T09:05:08;39.17;;;22.20;;
44446;SDS011;30152;52.066;5.358;2022-08-19T09:07:41;37.75;;;22.23;;
44446;SDS011;30152;52.066;5.358;2022-08-19T09:12:38;36.17;;;21.05;;
44446;SDS011;30152;52.066;5.358;2022-08-19T09:15:08;35.63;;;20.95;;
44446;SDS011;30152;52.066;5.358;2022-08-19T09:17:35;32.97;;;20.95;;
44446;SDS011;30152;52.066;5.358;2022-08-19T09:22:30;35.75;;;20.13;;
44446;SDS011;30152;52.066;5.358;2022-08-19T09:24:56;35.10;;;20.08;;
44446;SDS011;30152;52.066;5.358;2022-08-19T09:27:23;29.95;;;17.65;;
44446;SDS011;30152;52.066;5.358;2022-08-19T09:29:50;29.45;;;19.65;;
44446;SDS011;30152;52.066;5.358;2022-08-19T09:32:16;31.42;;;20.58;;
44446;SDS011;30152;52.066;5.358;2022-08-19T09:34:43;30.60;;;18.52;;
44446;SDS011;30152;52.066;5.358;2022-08-19T09:37:09;33.00;;;18.17;;
44446;SDS011;30152;52.066;5.358;2022-08-19T09:39:35;31.65;;;19.80;;
44446;SDS011;30152;52.066;5.358;2022-08-19T09:42:01;35.03;;;21.50;;
44446;SDS011;30152;52.066;5.358;2022-08-19T09:44:28;30.73;;;19.52;;
44446;SDS011;30152;52.066;5.358;2022-08-19T09:46:54;34.45;;;19.13;;
44446;SDS011;30152;52.066;5.358;2022-08-19T09:49:21;31.95;;;20.13;;
44446;SDS011;30152;52.066;5.358;2022-08-19T09:51:50;31.52;;;21.00;;
44446;SDS011;30152;52.066;5.358;2022-08-19T09:54:17;27.67;;;19.15;;
44446;SDS011;30152;52.066;5.358;2022-08-19T09:56:43;33.65;;;21.60;;
44446;SDS011;30152;52.066;5.358;2022-08-19T09:59:09;32.63;;;20.58;;
44446;SDS011;30152;52.066;5.358;2022-08-19T10:01:36;32.33;;;20.17;;
44446;SDS011;30152;52.066;5.358;2022-08-19T10:04:02;29.38;;;17.83;;
44446;SDS011;30152;52.066;5.358;2022-08-19T10:06:36;33.30;;;19.90;;
44446;SDS011;30152;52.066;5.358;2022-08-19T10:09:03;31.58;;;21.65;;
44446;SDS011;30152;52.066;5.358;2022-08-19T10:11:31;31.52;;;20.05;;
44446;SDS011;30152;52.066;5.358;2022-08-19T10:13:57;40.50;;;22.55;;
44446;SDS011;30152;52.066;5.358;2022-08-19T10:16:23;34.65;;;22.15;;
44446;SDS011;30152;52.066;5.358;2022-08-19T10:18:50;39.40;;;24.00;;
44446;SDS011;30152;52.066;5.358;2022-08-19T10:21:18;35.92;;;22.48;;
44446;SDS011;30152;52.066;5.358;2022-08-19T10:23:46;36.10;;;25.27;;
44446;SDS011;30152;52.066;5.358;2022-08-19T10:26:14;37.33;;;26.40;;
44446;SDS011;30152;52.066;5.358;2022-08-19T10:28:41;37.97;;;25.95;;
44446;SDS011;30152;52.066;5.358;2022-08-19T10:31:08;41.30;;;26.77;;
44446;SDS011;30152;52.066;5.358;2022-08-19T10:33:35;40.70;;;26.83;;
44446;SDS011;30152;52.066;5.358;2022-08-19T10:36:03;41.38;;;28.88;;
44446;SDS011;30152;52.066;5.358;2022-08-19T10:38:29;48.45;;;31.13;;
44446;SDS011;30152;52.066;5.358;2022-08-19T10:40:56;48.97;;;31.02;;
44446;SDS011;30152;52.066;5.358;2022-08-19T10:43:22;46.90;;;31.23;;
44446;SDS011;30152;52.066;5.358;2022-08-19T10:45:53;52.65;;;32.20;;
44446;SDS011;30152;52.066;5.358;2022-08-19T10:48:24;49.33;;;31.60;;
44446;SDS011;30152;52.066;5.358;2022-08-19T10:50:50;48.83;;;33.03;;
44446;SDS011;30152;52.066;5.358;2022-08-19T10:53:35;51.50;;;31.02;;
44446;SDS011;30152;52.066;5.358;2022-08-19T10:56:01;47.58;;;29.83;;
44446;SDS011;30152;52.066;5.358;2022-08-19T10:58:45;45.17;;;30.33;;
44446;SDS011;30152;52.066;5.358;2022-08-19T11:01:12;48.95;;;31.52;;
44446;SDS011;30152;52.066;5.358;2022-08-19T11:03:37;61.95;;;33.90;;
44446;SDS011;30152;52.066;5.358;2022-08-19T11:06:06;54.53;;;33.30;;
44446;SDS011;30152;52.066;5.358;2022-08-19T11:08:33;53.47;;;32.00;;
44446;SDS011;30152;52.066;5.358;2022-08-19T11:11:00;55.28;;;32.83;;
44446;SDS011;30152;52.066;5.358;2022-08-19T11:13:28;50.08;;;30.15;;
44446;SDS011;30152;52.066;5.358;2022-08-19T11:15:58;59.22;;;34.33;;
44446;SDS011;30152;52.066;5.358;2022-08-19T11:18:24;50.08;;;31.90;;
44446;SDS011;30152;52.066;5.358;2022-08-19T11:20:50;50.60;;;31.02;;
44446;SDS011;30152;52.066;5.358;2022-08-19T11:23:16;49.88;;;31.17;;
44446;SDS011;30152;52.066;5.358;2022-08-19T11:25:42;48.55;;;30.90;;
44446;SDS011;30152;52.066;5.358;2022-08-19T11:28:10;46.83;;;29.58;;
44446;SDS011;30152;52.066;5.358;2022-08-19T11:30:38;49.53;;;28.77;;
44446;SDS011;30152;52.066;5.358;2022-08-19T11:33:04;51.00;;;31.58;;
44446;SDS011;30152;52.066;5.358;2022-08-19T11:35:30;43.65;;;28.35;;
44446;SDS011;30152;52.066;5.358;2022-08-19T11:37:57;48.97;;;28.23;;
44446;SDS011;30152;52.066;5.358;2022-08-19T11:40:25;46.85;;;31.40;;
44446;SDS011;30152;52.066;5.358;2022-08-19T11:42:50;46.20;;;30.63;;
44446;SDS011;30152;52.066;5.358;2022-08-19T11:45:20;42.80;;;28.30;;
44446;SDS011;30152;52.066;5.358;2022-08-19T11:47:46;44.72;;;29.80;;
44446;SDS011;30152;52.066;5.358;2022-08-19T11:50:12;44.28;;;30.05;;
44446;SDS011;30152;52.066;5.358;2022-08-19T11:52:39;41.72;;;25.10;;
44446;SDS011;30152;52.066;5.358;2022-08-19T11:55:05;41.53;;;28.00;;
44446;SDS011;30152;52.066;5.358;2022-08-19T11:57:31;41.55;;;27.67;;
44446;SDS011;30152;52.066;5.358;2022-08-19T11:59:57;46.47;;;27.73;;
44446;SDS011;30152;52.066;5.358;2022-08-19T12:02:23;39.10;;;26.60;;
44446;SDS011;30152;52.066;5.358;2022-08-19T12:04:48;42.00;;;29.63;;
44446;SDS011;30152;52.066;5.358;2022-08-19T12:07:14;41.65;;;32.45;;
44446;SDS011;30152;52.066;5.358;2022-08-19T12:09:40;42.88;;;27.65;;
44446;SDS011;30152;52.066;5.358;2022-08-19T12:12:06;42.65;;;28.13;;
44446;SDS011;30152;52.066;5.358;2022-08-19T12:14:32;34.97;;;26.55;;
44446;SDS011;30152;52.066;5.358;2022-08-19T12:16:57;33.92;;;25.25;;
44446;SDS011;30152;52.066;5.358;2022-08-19T12:19:23;36.35;;;23.88;;
44446;SDS011;30152;52.066;5.358;2022-08-19T12:21:50;33.00;;;23.55;;
44446;SDS011;30152;52.066;5.358;2022-08-19T12:24:18;36.42;;;25.02;;
44446;SDS011;30152;52.066;5.358;2022-08-19T12:26:48;40.60;;;24.00;;
44446;SDS011;30152;52.066;5.358;2022-08-19T12:29:14;32.83;;;23.88;;
44446;SDS011;30152;52.066;5.358;2022-08-19T12:31:39;29.55;;;21.65;;
44446;SDS011;30152;52.066;5.358;2022-08-19T12:34:05;37.13;;;22.50;;
44446;SDS011;30152;52.066;5.358;2022-08-19T12:36:31;32.83;;;22.23;;
44446;SDS011;30152;52.066;5.358;2022-08-19T12:38:57;32.42;;;20.10;;
44446;SDS011;30152;52.066;5.358;2022-08-19T12:41:24;34.63;;;22.60;;
44446;SDS011;30152;52.066;5.358;2022-08-19T12:43:50;33.15;;;20.83;;
44446;SDS011;30152;52.066;5.358;2022-08-19T12:46:17;29.48;;;20.50;;
44446;SDS011;30152;52.066;5.358;2022-08-19T12:48:44;28.08;;;20.00;;
44446;SDS011;30152;52.066;5.358;2022-08-19T12:51:15;27.92;;;19.40;;
44446;SDS011;30152;52.066;5.358;2022-08-19T12:53:44;24.90;;;18.73;;
44446;SDS011;30152;52.066;5.358;2022-08-19T12:56:11;27.80;;;19.27;;
44446;SDS011;30152;52.066;5.358;2022-08-19T12:58:39;27.90;;;16.88;;
44446;SDS011;30152;52.066;5.358;2022-08-19T13:01:09;25.17;;;16.33;;
44446;SDS011;30152;52.066;5.358;2022-08-19T13:03:37;23.55;;;15.85;;
44446;SDS011;30152;52.066;5.358;2022-08-19T13:06:04;20.55;;;13.75;;
44446;SDS011;30152;52.066;5.358;2022-08-19T13:08:29;20.27;;;12.82;;
44446;SDS011;30152;52.066;5.358;2022-08-19T13:10:55;15.05;;;10.80;;
44446;SDS011;30152;52.066;5.358;2022-08-19T13:13:21;19.42;;;11.60;;
44446;SDS011;30152;52.066;5.358;2022-08-19T13:15:46;18.73;;;12.50;;
44446;SDS011;30152;52.066;5.358;2022-08-19T13:18:12;20.17;;;14.38;;
44446;SDS011;30152;52.066;5.358;2022-08-19T13:20:39;18.92;;;15.55;;
44446;SDS011;30152;52.066;5.358;2022-08-19T13:23:05;22.55;;;14.25;;
44446;SDS011;30152;52.066;5.358;2022-08-19T13:25:32;22.98;;;15.45;;
44446;SDS011;30152;52.066;5.358;2022-08-19T13:27:58;19.65;;;13.63;;
44446;SDS011;30152;52.066;5.358;2022-08-19T13:30:24;25.00;;;15.90;;
44446;SDS011;30152;52.066;5.358;2022-08-19T13:33:08;23.33;;;15.05;;
44446;SDS011;30152;52.066;5.358;2022-08-19T13:35:50;20.85;;;14.23;;
44446;SDS011;30152;52.066;5.358;2022-08-19T13:38:21;21.45;;;14.30;;
44446;SDS011;30152;52.066;5.358;2022-08-19T13:40:48;21.15;;;14.30;;
44446;SDS011;30152;52.066;5.358;2022-08-19T13:43:15;25.80;;;14.15;;
44446;SDS011;30152;52.066;5.358;2022-08-19T13:45:42;19.60;;;12.95;;
44446;SDS011;30152;52.066;5.358;2022-08-19T13:48:08;19.33;;;12.90;;
44446;SDS011;30152;52.066;5.358;2022-08-19T13:50:35;21.10;;;14.77;;
44446;SDS011;30152;52.066;5.358;2022-08-19T13:53:06;23.92;;;14.98;;
44446;SDS011;30152;52.066;5.358;2022-08-19T13:55:33;23.75;;;14.38;;
44446;SDS011;30152;52.066;5.358;2022-08-19T13:58:00;19.52;;;13.95;;
44446;SDS011;30152;52.066;5.358;2022-08-19T14:00:31;17.15;;;12.05;;
44446;SDS011;30152;52.066;5.358;2022-08-19T14:02:58;20.20;;;11.73;;
44446;SDS011;30152;52.066;5.358;2022-08-19T14:05:25;19.15;;;13.43;;
44446;SDS011;30152;52.066;5.358;2022-08-19T14:07:52;24.15;;;14.70;;
44446;SDS011;30152;52.066;5.358;2022-08-19T14:10:18;24.35;;;13.68;;
44446;SDS011;30152;52.066;5.358;2022-08-19T14:12:44;23.67;;;15.45;;
44446;SDS011;30152;52.066;5.358;2022-08-19T14:15:11;20.55;;;13.70;;
44446;SDS011;30152;52.066;5.358;2022-08-19T14:17:41;19.95;;;14.70;;
44446;SDS011;30152;52.066;5.358;2022-08-19T14:20:08;23.05;;;16.17;;
44446;SDS011;30152;52.066;5.358;2022-08-19T14:22:36;20.13;;;14.43;;
44446;SDS011;30152;52.066;5.358;2022-08-19T14:25:04;21.30;;;13.82;;
44446;SDS011;30152;52.066;5.358;2022-08-19T14:27:32;16.15;;;12.40;;
44446;SDS011;30152;52.066;5.358;2022-08-19T14:30:03;19.08;;;14.70;;
44446;SDS011;30152;52.066;5.358;2022-08-19T14:32:31;19.15;;;15.35;;
44446;SDS011;30152;52.066;5.358;2022-08-19T14:34:57;17.48;;;13.90;;
44446;SDS011;30152;52.066;5.358;2022-08-19T14:37:23;19.33;;;15.07;;
44446;SDS011;30152;52.066;5.358;2022-08-19T14:39:51;18.58;;;14.70;;
44446;SDS011;30152;52.066;5.358;2022-08-19T14:42:17;16.80;;;13.98;;
44446;SDS011;30152;52.066;5.358;2022-08-19T14:44:44;16.45;;;11.43;;
44446;SDS011;30152;52.066;5.358;2022-08-19T14:47:09;13.43;;;11.07;;
44446;SDS011;30152;52.066;5.358;2022-08-19T14:49:36;13.35;;;10.82;;
44446;SDS011;30152;52.066;5.358;2022-08-19T14:52:02;15.27;;;12.32;;
44446;SDS011;30152;52.066;5.358;2022-08-19T14:54:29;17.40;;;12.13;;
44446;SDS011;30152;52.066;5.358;2022-08-19T14:56:55;13.50;;;10.40;;
44446;SDS011;30152;52.066;5.358;2022-08-19T14:59:21;13.45;;;11.25;;
44446;SDS011;30152;52.066;5.358;2022-08-19T15:01:47;13.85;;;10.25;;
44446;SDS011;30152;52.066;5.358;2022-08-19T15:04:13;14.70;;;11.88;;
44446;SDS011;30152;52.066;5.358;2022-08-19T15:06:39;13.10;;;9.73;;
44446;SDS011;30152;52.066;5.358;2022-08-19T15:09:07;12.48;;;9.93;;
44446;SDS011;30152;52.066;5.358;2022-08-19T15:11:33;12.88;;;10.82;;
44446;SDS011;30152;52.066;5.358;2022-08-19T15:13:59;13.77;;;11.00;;
44446;SDS011;30152;52.066;5.358;2022-08-19T15:16:26;15.40;;;10.35;;
44446;SDS011;30152;52.066;5.358;2022-08-19T15:18:54;13.98;;;11.55;;
44446;SDS011;30152;52.066;5.358;2022-08-19T15:21:21;12.02;;;9.43;;
44446;SDS011;30152;52.066;5.358;2022-08-19T15:23:48;12.75;;;9.45;;
44446;SDS011;30152;52.066;5.358;2022-08-19T15:26:15;9.55;;;7.18;;
44446;SDS011;30152;52.066;5.358;2022-08-19T15:28:42;16.33;;;9.98;;
44446;SDS011;30152;52.066;5.358;2022-08-19T15:31:08;12.85;;;8.90;;
44446;SDS011;30152;52.066;5.358;2022-08-19T15:33:35;12.25;;;8.75;;
44446;SDS011;30152;52.066;5.358;2022-08-19T15:36:02;13.27;;;8.32;;
44446;SDS011;30152;52.066;5.358;2022-08-19T15:38:29;11.82;;;8.23;;
44446;SDS011;30152;52.066;5.358;2022-08-19T15:40:55;13.48;;;9.20;;
44446;SDS011;30152;52.066;5.358;2022-08-19T15:43:41;14.70;;;9.48;;
44446;SDS011;30152;52.066;5.358;2022-08-19T15:46:07;13.23;;;8.75;;
44446;SDS011;30152;52.066;5.358;2022-08-19T15:48:33;12.50;;;7.65;;
44446;SDS011;30152;52.066;5.358;2022-08-19T15:50:59;13.52;;;9.48;;
44446;SDS011;30152;52.066;5.358;2022-08-19T15:53:25;12.45;;;8.75;;
44446;SDS011;30152;52.066;5.358;2022-08-19T15:55:51;12.93;;;9.00;;
44446;SDS011;30152;52.066;5.358;2022-08-19T15:58:17;15.38;;;10.00;;
44446;SDS011;30152;52.066;5.358;2022-08-19T16:01:03;16.65;;;10.23;;
44446;SDS011;30152;52.066;5.358;2022-08-19T16:03:48;17.33;;;10.80;;
44446;SDS011;30152;52.066;5.358;2022-08-19T16:06:34;17.50;;;11.52;;
44446;SDS011;30152;52.066;5.358;2022-08-19T16:09:01;18.95;;;11.40;;
44446;SDS011;30152;52.066;5.358;2022-08-19T16:11:29;23.40;;;12.18;;
44446;SDS011;30152;52.066;5.358;2022-08-19T16:13:56;19.48;;;10.80;;
44446;SDS011;30152;52.066;5.358;2022-08-19T16:16:26;19.48;;;12.27;;
44446;SDS011;30152;52.066;5.358;2022-08-19T16:18:53;21.88;;;12.95;;
44446;SDS011;30152;52.066;5.358;2022-08-19T16:21:20;20.25;;;12.82;;
44446;SDS011;30152;52.066;5.358;2022-08-19T16:23:47;21.20;;;14.07;;
44446;SDS011;30152;52.066;5.358;2022-08-19T16:26:14;20.38;;;14.73;;
44446;SDS011;30152;52.066;5.358;2022-08-19T16:28:40;22.88;;;14.30;;
44446;SDS011;30152;52.066;5.358;2022-08-19T16:31:06;19.83;;;13.77;;
44446;SDS011;30152;52.066;5.358;2022-08-19T16:33:32;24.73;;;15.48;;
44446;SDS011;30152;52.066;5.358;2022-08-19T16:35:58;20.05;;;11.13;;
44446;SDS011;30152;52.066;5.358;2022-08-19T16:38:25;19.80;;;12.20;;
44446;SDS011;30152;52.066;5.358;2022-08-19T16:40:52;19.13;;;11.45;;
44446;SDS011;30152;52.066;5.358;2022-08-19T16:43:22;20.20;;;11.10;;
44446;SDS011;30152;52.066;5.358;2022-08-19T16:45:50;20.55;;;13.75;;
44446;SDS011;30152;52.066;5.358;2022-08-19T16:48:17;24.10;;;14.80;;
44446;SDS011;30152;52.066;5.358;2022-08-19T16:50:43;24.13;;;14.32;;
44446;SDS011;30152;52.066;5.358;2022-08-19T16:53:11;31.45;;;15.35;;
44446;SDS011;30152;52.066;5.358;2022-08-19T16:55:37;29.67;;;12.23;;
44446;SDS011;30152;52.066;5.358;2022-08-19T16:58:03;32.53;;;13.35;;
44446;SDS011;30152;52.066;5.358;2022-08-19T17:00:29;20.58;;;11.23;;
44446;SDS011;30152;52.066;5.358;2022-08-19T17:02:55;27.38;;;13.50;;
44446;SDS011;30152;52.066;5.358;2022-08-19T17:05:21;27.05;;;12.90;;
44446;SDS011;30152;52.066;5.358;2022-08-19T17:07:47;32.58;;;13.90;;
44446;SDS011;30152;52.066;5.358;2022-08-19T17:10:13;29.40;;;13.57;;
44446;SDS011;30152;52.066;5.358;2022-08-19T17:12:39;26.00;;;12.82;;
44446;SDS011;30152;52.066;5.358;2022-08-19T17:15:05;26.60;;;12.55;;
44446;SDS011;30152;52.066;5.358;2022-08-19T17:17:32;31.90;;;14.10;;
44446;SDS011;30152;52.066;5.358;2022-08-19T17:19:59;28.05;;;12.93;;
44446;SDS011;30152;52.066;5.358;2022-08-19T17:22:26;32.10;;;14.05;;
44446;SDS011;30152;52.066;5.358;2022-08-19T17:24:52;30.35;;;13.65;;
44446;SDS011;30152;52.066;5.358;2022-08-19T17:27:19;37.40;;;14.82;;
44446;SDS011;30152;52.066;5.358;2022-08-19T17:29:44;28.15;;;13.45;;
44446;SDS011;30152;52.066;5.358;2022-08-19T17:32:10;29.52;;;13.93;;
44446;SDS011;30152;52.066;5.358;2022-08-19T17:34:36;35.35;;;14.93;;
44446;SDS011;30152;52.066;5.358;2022-08-19T17:37:03;28.17;;;13.60;;
44446;SDS011;30152;52.066;5.358;2022-08-19T17:39:29;26.15;;;13.68;;
44446;SDS011;30152;52.066;5.358;2022-08-19T17:41:55;24.13;;;12.20;;
44446;SDS011;30152;52.066;5.358;2022-08-19T17:44:21;25.63;;;12.65;;
44446;SDS011;30152;52.066;5.358;2022-08-19T17:46:47;25.70;;;12.88;;
44446;SDS011;30152;52.066;5.358;2022-08-19T17:49:13;26.02;;;12.93;;
44446;SDS011;30152;52.066;5.358;2022-08-19T17:51:44;27.52;;;13.07;;
44446;SDS011;30152;52.066;5.358;2022-08-19T17:54:14;24.63;;;12.65;;
44446;SDS011;30152;52.066;5.358;2022-08-19T17:56:40;24.65;;;11.25;;
44446;SDS011;30152;52.066;5.358;2022-08-19T17:59:07;20.38;;;11.80;;
44446;SDS011;30152;52.066;5.358;2022-08-19T18:01:33;22.42;;;11.60;;
44446;SDS011;30152;52.066;5.358;2022-08-19T18:03:59;20.10;;;11.50;;
44446;SDS011;30152;52.066;5.358;2022-08-19T18:06:26;23.52;;;11.05;;
44446;SDS011;30152;52.066;5.358;2022-08-19T18:08:52;20.52;;;11.00;;
44446;SDS011;30152;52.066;5.358;2022-08-19T18:11:18;23.13;;;12.10;;
44446;SDS011;30152;52.066;5.358;2022-08-19T18:13:44;25.08;;;12.25;;
44446;SDS011;30152;52.066;5.358;2022-08-19T18:16:10;18.90;;;10.23;;
44446;SDS011;30152;52.066;5.358;2022-08-19T18:18:38;16.65;;;9.30;;
44446;SDS011;30152;52.066;5.358;2022-08-19T18:21:04;15.98;;;10.10;;
44446;SDS011;30152;52.066;5.358;2022-08-19T18:23:30;14.20;;;8.02;;
44446;SDS011;30152;52.066;5.358;2022-08-19T18:25:57;13.00;;;7.47;;
44446;SDS011;30152;52.066;5.358;2022-08-19T18:28:23;11.10;;;6.68;;
44446;SDS011;30152;52.066;5.358;2022-08-19T18:30:50;14.70;;;6.32;;
44446;SDS011;30152;52.066;5.358;2022-08-19T18:33:16;10.48;;;6.20;;
44446;SDS011;30152;52.066;5.358;2022-08-19T18:35:43;10.43;;;6.47;;
44446;SDS011;30152;52.066;5.358;2022-08-19T18:38:10;12.18;;;6.88;;
44446;SDS011;30152;52.066;5.358;2022-08-19T18:40:55;8.90;;;5.78;;
44446;SDS011;30152;52.066;5.358;2022-08-19T18:43:39;13.57;;;6.18;;
44446;SDS011;30152;52.066;5.358;2022-08-19T18:46:24;7.78;;;4.85;;
44446;SDS011;30152;52.066;5.358;2022-08-19T18:49:09;12.57;;;6.03;;
44446;SDS011;30152;52.066;5.358;2022-08-19T18:51:35;12.73;;;6.45;;
44446;SDS011;30152;52.066;5.358;2022-08-19T18:54:01;11.68;;;6.25;;
44446;SDS011;30152;52.066;5.358;2022-08-19T18:56:28;10.63;;;6.43;;
44446;SDS011;30152;52.066;5.358;2022-08-19T18:58:59;12.48;;;6.25;;
44446;SDS011;30152;52.066;5.358;2022-08-19T19:01:30;9.23;;;6.30;;
44446;SDS011;30152;52.066;5.358;2022-08-19T19:04:01;13.07;;;6.22;;
44446;SDS011;30152;52.066;5.358;2022-08-19T19:06:29;11.20;;;6.90;;
44446;SDS011;30152;52.066;5.358;2022-08-19T19:08:55;11.25;;;6.30;;
44446;SDS011;30152;52.066;5.358;2022-08-19T19:11:27;11.00;;;6.10;;
44446;SDS011;30152;52.066;5.358;2022-08-19T19:13:54;13.88;;;6.63;;
44446;SDS011;30152;52.066;5.358;2022-08-19T19:16:20;10.93;;;5.90;;
44446;SDS011;30152;52.066;5.358;2022-08-19T19:18:47;11.98;;;6.13;;
44446;SDS011;30152;52.066;5.358;2022-08-19T19:21:16;9.50;;;5.93;;
44446;SDS011;30152;52.066;5.358;2022-08-19T19:23:43;8.95;;;5.78;;
44446;SDS011;30152;52.066;5.358;2022-08-19T19:26:09;9.95;;;5.75;;
44446;SDS011;30152;52.066;5.358;2022-08-19T19:28:36;10.55;;;5.90;;
44446;SDS011;30152;52.066;5.358;2022-08-19T19:31:07;17.05;;;6.95;;
44446;SDS011;30152;52.066;5.358;2022-08-19T19:33:36;10.13;;;6.05;;
44446;SDS011;30152;52.066;5.358;2022-08-19T19:36:02;12.77;;;6.07;;
44446;SDS011;30152;52.066;5.358;2022-08-19T19:38:28;11.75;;;5.82;;
44446;SDS011;30152;52.066;5.358;2022-08-19T19:40:54;10.95;;;5.80;;
44446;SDS011;30152;52.066;5.358;2022-08-19T19:43:20;9.50;;;5.57;;
44446;SDS011;30152;52.066;5.358;2022-08-19T19:45:46;9.63;;;5.43;;
44446;SDS011;30152;52.066;5.358;2022-08-19T19:48:13;11.60;;;5.45;;
44446;SDS011;30152;52.066;5.358;2022-08-19T19:50:40;12.30;;;5.13;;
44446;SDS011;30152;52.066;5.358;2022-08-19T19:53:06;12.02;;;5.57;;
44446;SDS011;30152;52.066;5.358;2022-08-19T19:55:32;8.68;;;5.10;;
44446;SDS011;30152;52.066;5.358;2022-08-19T19:57:58;9.80;;;5.55;;
44446;SDS011;30152;52.066;5.358;2022-08-19T20:00:24;8.68;;;5.38;;
44446;SDS011;30152;52.066;5.358;2022-08-19T20:02:50;8.73;;;5.38;;
44446;SDS011;30152;52.066;5.358;2022-08-19T20:05:18;9.25;;;5.60;;
44446;SDS011;30152;52.066;5.358;2022-08-19T20:07:45;10.80;;;6.45;;
44446;SDS011;30152;52.066;5.358;2022-08-19T20:10:30;15.90;;;6.70;;
44446;SDS011;30152;52.066;5.358;2022-08-19T20:12:56;10.75;;;6.70;;
44446;SDS011;30152;52.066;5.358;2022-08-19T20:15:22;13.93;;;6.85;;
44446;SDS011;30152;52.066;5.358;2022-08-19T20:17:48;11.35;;;7.05;;
44446;SDS011;30152;52.066;5.358;2022-08-19T20:20:15;12.57;;;7.00;;
44446;SDS011;30152;52.066;5.358;2022-08-19T20:22:43;13.45;;;7.20;;
44446;SDS011;30152;52.066;5.358;2022-08-19T20:25:11;13.18;;;7.85;;
44446;SDS011;30152;52.066;5.358;2022-08-19T20:27:38;17.05;;;8.70;;
44446;SDS011;30152;52.066;5.358;2022-08-19T20:30:05;16.33;;;8.70;;
44446;SDS011;30152;52.066;5.358;2022-08-19T20:32:31;18.92;;;8.88;;
44446;SDS011;30152;52.066;5.358;2022-08-19T20:34:57;15.57;;;9.15;;
44446;SDS011;30152;52.066;5.358;2022-08-19T20:37:23;16.00;;;8.70;;
44446;SDS011;30152;52.066;5.358;2022-08-19T20:39:50;18.60;;;8.80;;
44446;SDS011;30152;52.066;5.358;2022-08-19T20:42:16;16.55;;;8.88;;
44446;SDS011;30152;52.066;5.358;2022-08-19T20:44:42;18.85;;;8.55;;
44446;SDS011;30152;52.066;5.358;2022-08-19T20:47:08;16.95;;;9.23;;
44446;SDS011;30152;52.066;5.358;2022-08-19T20:49:34;17.83;;;8.88;;
44446;SDS011;30152;52.066;5.358;2022-08-19T20:52:00;13.23;;;8.40;;
44446;SDS011;30152;52.066;5.358;2022-08-19T20:54:27;14.82;;;8.90;;
44446;SDS011;30152;52.066;5.358;2022-08-19T20:56:54;15.38;;;8.43;;
44446;SDS011;30152;52.066;5.358;2022-08-19T20:59:20;14.43;;;8.57;;
44446;SDS011;30152;52.066;5.358;2022-08-19T21:01:47;16.95;;;8.73;;
44446;SDS011;30152;52.066;5.358;2022-08-19T21:04:15;13.80;;;8.48;;
44446;SDS011;30152;52.066;5.358;2022-08-19T21:06:41;16.38;;;8.23;;
44446;SDS011;30152;52.066;5.358;2022-08-19T21:09:07;20.00;;;8.55;;
44446;SDS011;30152;52.066;5.358;2022-08-19T21:11:33;13.82;;;8.48;;
44446;SDS011;30152;52.066;5.358;2022-08-19T21:14:00;12.68;;;7.93;;
44446;SDS011;30152;52.066;5.358;2022-08-19T21:16:26;14.75;;;8.20;;
